createdAt,value
2022-11-13T00:00:29.656Z,50.908024
2022-11-13T00:01:29.643Z,50.908070
2022-11-13T00:02:29.681Z,50.908081
2022-11-13T00:03:29.631Z,50.908092
2022-11-13T00:04:29.620Z,50.908134
2022-11-13T00:05:29.682Z,50.908092
2022-11-13T00:06:29.611Z,50.908062
2022-11-13T00:07:29.722Z,50.908100
2022-11-13T00:08:29.962Z,50.908066
2022-11-13T00:09:29.600Z,50.908009
2022-11-13T00:10:29.577Z,50.908051
2022-11-13T00:11:29.572Z,50.908112
2022-11-13T00:12:29.593Z,50.908142
2022-11-13T00:13:30.679Z,50.907936
2022-11-13T00:14:30.549Z,50.908100
2022-11-13T00:15:29.544Z,50.908077
2022-11-13T00:16:29.532Z,50.908134
2022-11-13T00:17:29.555Z,50.908073
2022-11-13T00:18:29.864Z,50.908054
2022-11-13T00:19:29.510Z,50.908012
2022-11-13T00:20:29.500Z,50.908054
2022-11-13T00:21:29.569Z,50.908157
2022-11-13T00:22:29.528Z,50.908291
2022-11-13T00:23:29.485Z,50.908089
2022-11-13T00:24:29.472Z,50.908054
2022-11-13T00:25:29.467Z,50.908096
2022-11-13T00:26:29.469Z,50.908062
2022-11-13T00:27:29.487Z,50.908131
2022-11-13T00:28:29.777Z,50.908043
2022-11-13T00:29:29.438Z,50.908073
2022-11-13T00:30:29.444Z,50.908119
2022-11-13T00:31:29.422Z,50.908089
2022-11-13T00:32:29.414Z,50.908066
2022-11-13T00:33:54.987Z,50.908104
2022-11-13T00:34:47.120Z,50.908131
2022-11-13T00:35:31.395Z,50.908161
2022-11-13T00:36:29.384Z,50.908138
2022-11-13T00:37:29.451Z,50.908146
2022-11-13T00:38:29.703Z,50.908150
2022-11-13T00:39:29.365Z,50.908188
2022-11-13T00:40:29.364Z,50.908268
2022-11-13T00:41:29.344Z,50.908211
2022-11-13T00:42:29.343Z,50.908154
2022-11-13T00:43:29.351Z,50.908146
2022-11-13T00:44:29.324Z,50.908165
2022-11-13T00:45:29.315Z,50.908165
2022-11-13T00:46:29.301Z,50.908104
2022-11-13T00:47:29.296Z,50.908127
2022-11-13T00:48:29.700Z,50.908115
2022-11-13T00:49:29.283Z,50.908131
2022-11-13T00:50:29.273Z,50.908134
2022-11-13T00:51:29.271Z,50.908154
2022-11-13T00:52:29.262Z,50.908131
2022-11-13T00:53:29.355Z,50.908123
2022-11-13T00:54:29.247Z,50.908165
2022-11-13T00:55:29.244Z,50.908146
2022-11-13T00:56:29.231Z,50.908123
2022-11-13T00:57:29.223Z,50.908119
2022-11-13T00:58:29.499Z,50.908138
2022-11-13T00:59:29.209Z,50.908142
2022-11-13T01:00:29.207Z,50.908138
2022-11-13T01:01:29.261Z,50.908104
2022-11-13T01:02:29.192Z,50.908134
2022-11-13T01:03:29.197Z,50.908150
2022-11-13T01:04:29.165Z,50.908161
2022-11-13T01:05:29.165Z,50.908131
2022-11-13T01:06:29.155Z,50.908119
2022-11-13T01:07:29.135Z,50.908112
2022-11-13T01:08:30.441Z,50.908131
2022-11-13T01:09:29.219Z,50.908108
2022-11-13T01:10:29.121Z,50.908127
2022-11-13T01:11:29.121Z,50.908150
2022-11-13T01:12:29.114Z,50.908127
2022-11-13T01:13:29.128Z,50.908138
2022-11-13T01:14:29.091Z,50.908142
2022-11-13T01:15:29.084Z,50.908142
2022-11-13T01:16:29.084Z,50.908142
2022-11-13T01:17:29.075Z,50.908142
2022-11-13T01:18:29.357Z,50.908138
2022-11-13T01:19:29.061Z,50.908142
2022-11-13T01:20:29.048Z,50.908005
2022-11-13T01:21:29.038Z,50.908077
2022-11-13T01:22:29.034Z,50.908112
2022-11-13T01:23:29.046Z,50.908100
2022-11-13T01:24:29.015Z,50.908092
2022-11-13T01:25:29.085Z,50.908134
2022-11-13T01:26:28.998Z,50.908096
2022-11-13T01:27:29.021Z,50.908066
2022-11-13T01:28:29.233Z,50.908035
2022-11-13T01:29:28.978Z,50.908047
2022-11-13T01:30:28.966Z,50.908096
2022-11-13T01:31:28.957Z,50.908123
2022-11-13T01:32:28.989Z,50.908062
2022-11-13T01:33:28.960Z,50.908066
2022-11-13T01:34:28.945Z,50.908054
2022-11-13T01:35:28.934Z,50.908066
2022-11-13T01:36:28.946Z,50.908058
2022-11-13T01:37:28.918Z,50.908047
2022-11-13T01:38:32.040Z,50.908039
2022-11-13T01:39:29.904Z,50.908028
2022-11-13T01:40:28.896Z,50.908073
2022-11-13T01:41:28.965Z,50.908123
2022-11-13T01:42:28.885Z,50.908112
2022-11-13T01:43:28.904Z,50.908092
2022-11-13T01:44:28.865Z,50.908062
2022-11-13T01:45:28.855Z,50.908043
2022-11-13T01:46:28.857Z,50.908081
2022-11-13T01:47:28.843Z,50.908112
2022-11-13T01:48:29.396Z,50.908066
2022-11-13T01:49:28.832Z,50.907967
2022-11-13T01:50:28.822Z,50.908009
2022-11-13T01:51:28.811Z,50.908043
2022-11-13T01:52:28.807Z,50.908012
2022-11-13T01:53:28.824Z,50.908016
2022-11-13T01:54:28.800Z,50.907967
2022-11-13T01:55:28.784Z,50.908100
2022-11-13T01:56:28.781Z,50.908127
2022-11-13T01:57:28.836Z,50.908173
2022-11-13T01:58:29.252Z,50.908234
2022-11-13T01:59:28.756Z,50.908260
2022-11-13T02:00:28.744Z,50.908112
2022-11-13T02:01:28.776Z,50.908127
2022-11-13T02:02:28.735Z,50.908047
2022-11-13T02:03:28.752Z,50.907963
2022-11-13T02:04:28.724Z,50.908092
2022-11-13T02:05:28.712Z,50.908089
2022-11-13T02:06:28.709Z,50.908035
2022-11-13T02:07:28.699Z,50.907818
2022-11-13T02:08:29.164Z,50.907967
2022-11-13T02:09:28.687Z,50.908138
2022-11-13T02:10:28.676Z,50.908161
2022-11-13T02:11:28.674Z,50.908154
2022-11-13T02:12:28.662Z,50.908123
2022-11-13T02:13:28.749Z,50.908115
2022-11-13T02:14:28.648Z,50.908134
2022-11-13T02:15:28.647Z,50.908070
2022-11-13T02:16:28.632Z,50.908001
2022-11-13T02:17:28.618Z,50.908096
2022-11-13T02:18:29.895Z,50.908188
2022-11-13T02:19:28.623Z,50.908184
2022-11-13T02:20:28.595Z,50.908176
2022-11-13T02:21:28.593Z,50.908165
2022-11-13T02:22:28.583Z,50.908024
2022-11-13T02:23:28.603Z,50.908096
2022-11-13T02:24:28.579Z,50.908089
2022-11-13T02:25:28.568Z,50.908119
2022-11-13T02:26:28.560Z,50.908154
2022-11-13T02:27:28.549Z,50.908173
2022-11-13T02:28:28.962Z,50.908104
2022-11-13T02:29:28.609Z,50.908131
2022-11-13T02:30:28.524Z,50.907963
2022-11-13T02:31:28.517Z,50.907982
2022-11-13T02:32:28.516Z,50.907955
2022-11-13T02:33:28.536Z,50.908077
2022-11-13T02:34:28.498Z,50.908134
2022-11-13T02:35:28.494Z,50.908108
2022-11-13T02:36:28.485Z,50.908119
2022-11-13T02:37:28.474Z,50.908123
2022-11-13T02:38:28.678Z,50.908127
2022-11-13T02:39:28.466Z,50.908150
2022-11-13T02:40:28.459Z,50.908142
2022-11-13T02:41:28.445Z,50.908260
2022-11-13T02:42:28.444Z,50.908218
2022-11-13T02:43:28.461Z,50.908192
2022-11-13T02:44:28.428Z,50.908077
2022-11-13T02:45:28.489Z,50.908131
2022-11-13T02:46:28.413Z,50.908039
2022-11-13T02:47:28.433Z,50.908142
2022-11-13T02:48:28.686Z,50.908134
2022-11-13T02:49:28.385Z,50.908169
2022-11-13T02:50:28.382Z,50.908310
2022-11-13T02:51:28.372Z,50.908188
2022-11-13T02:52:28.439Z,50.908138
2022-11-13T02:53:28.383Z,50.908100
2022-11-13T02:54:28.349Z,50.908142
2022-11-13T02:55:28.350Z,50.908146
2022-11-13T02:56:28.347Z,50.908134
2022-11-13T02:57:28.329Z,50.908115
2022-11-13T02:58:28.797Z,50.908161
2022-11-13T02:59:28.320Z,50.908134
2022-11-13T03:00:28.317Z,50.908131
2022-11-13T03:01:28.462Z,50.908115
2022-11-13T03:02:28.320Z,50.908119
2022-11-13T03:03:55.853Z,50.908115
2022-11-13T03:04:50.181Z,50.908108
2022-11-13T03:05:30.267Z,50.908157
2022-11-13T03:06:28.264Z,50.908142
2022-11-13T03:07:28.252Z,50.908123
2022-11-13T03:08:29.042Z,50.908085
2022-11-13T03:09:28.236Z,50.908123
2022-11-13T03:10:28.226Z,50.908127
2022-11-13T03:11:28.225Z,50.908134
2022-11-13T03:12:28.214Z,50.908157
2022-11-13T03:13:28.231Z,50.908134
2022-11-13T03:14:28.204Z,50.908142
2022-11-13T03:15:28.191Z,50.908184
2022-11-13T03:16:28.181Z,50.908146
2022-11-13T03:17:28.250Z,50.908104
2022-11-13T03:18:28.494Z,50.908127
2022-11-13T03:19:29.158Z,50.908146
2022-11-13T03:20:28.145Z,50.908112
2022-11-13T03:21:28.165Z,50.908134
2022-11-13T03:22:28.137Z,50.908131
2022-11-13T03:23:28.159Z,50.908108
2022-11-13T03:24:28.123Z,50.908146
2022-11-13T03:25:28.116Z,50.908134
2022-11-13T03:26:28.106Z,50.908165
2022-11-13T03:27:28.098Z,50.908146
2022-11-13T03:28:28.511Z,50.908115
2022-11-13T03:29:28.088Z,50.908005
2022-11-13T03:30:28.078Z,50.908085
2022-11-13T03:31:28.073Z,50.908119
2022-11-13T03:32:28.059Z,50.908104
2022-11-13T03:33:28.163Z,50.908119
2022-11-13T03:34:28.045Z,50.908077
2022-11-13T03:35:31.232Z,50.908108
2022-11-13T03:36:29.028Z,50.908085
2022-11-13T03:37:28.020Z,50.908112
2022-11-13T03:38:28.304Z,50.908127
2022-11-13T03:39:28.007Z,50.908127
2022-11-13T03:40:27.997Z,50.908165
2022-11-13T03:41:27.997Z,50.908184
2022-11-13T03:42:27.989Z,50.908173
2022-11-13T03:43:28.004Z,50.908154
2022-11-13T03:44:27.975Z,50.908173
2022-11-13T03:45:28.033Z,50.908112
2022-11-13T03:46:27.953Z,50.908127
2022-11-13T03:47:27.950Z,50.908131
2022-11-13T03:48:28.343Z,50.908134
2022-11-13T03:49:28.013Z,50.908127
2022-11-13T03:50:27.923Z,50.908127
2022-11-13T03:51:27.920Z,50.908123
2022-11-13T03:52:27.915Z,50.908127
2022-11-13T03:53:27.928Z,50.908134
2022-11-13T03:54:27.889Z,50.908154
2022-11-13T03:55:27.880Z,50.908112
2022-11-13T03:56:27.873Z,50.908043
2022-11-13T03:57:27.868Z,50.908089
2022-11-13T03:58:28.205Z,50.908131
2022-11-13T03:59:27.853Z,50.908112
2022-11-13T04:00:27.843Z,50.908161
2022-11-13T04:01:27.888Z,50.908150
2022-11-13T04:02:27.824Z,50.908092
2022-11-13T04:03:28.857Z,50.908092
2022-11-13T04:04:27.815Z,50.908180
2022-11-13T04:05:27.975Z,50.908165
2022-11-13T04:06:27.798Z,50.908146
2022-11-13T04:07:27.790Z,50.908142
2022-11-13T04:08:28.127Z,50.908123
2022-11-13T04:09:27.769Z,50.908054
2022-11-13T04:10:27.784Z,50.908104
2022-11-13T04:11:27.758Z,50.908154
2022-11-13T04:12:27.754Z,50.908138
2022-11-13T04:13:27.770Z,50.908104
2022-11-13T04:14:27.740Z,50.908092
2022-11-13T04:15:27.727Z,50.908092
2022-11-13T04:16:27.718Z,50.908169
2022-11-13T04:17:27.725Z,50.908157
2022-11-13T04:18:28.046Z,50.908157
2022-11-13T04:19:27.696Z,50.908062
2022-11-13T04:20:27.703Z,50.908035
2022-11-13T04:21:27.770Z,50.908127
2022-11-13T04:22:27.680Z,50.908207
2022-11-13T04:23:27.701Z,50.908131
2022-11-13T04:24:27.671Z,50.908188
2022-11-13T04:25:27.657Z,50.908203
2022-11-13T04:26:27.652Z,50.908211
2022-11-13T04:27:27.652Z,50.908089
2022-11-13T04:28:28.148Z,50.908119
2022-11-13T04:29:27.636Z,50.908249
2022-11-13T04:30:27.722Z,50.908184
2022-11-13T04:31:27.618Z,50.908154
2022-11-13T04:32:27.605Z,50.908157
2022-11-13T04:33:27.619Z,50.908184
2022-11-13T04:34:27.583Z,50.908192
2022-11-13T04:35:27.580Z,50.908146
2022-11-13T04:36:27.573Z,50.908173
2022-11-13T04:37:27.564Z,50.908138
2022-11-13T04:38:27.935Z,50.908138
2022-11-13T04:39:27.547Z,50.908138
2022-11-13T04:40:27.545Z,50.908138
2022-11-13T04:41:27.535Z,50.908138
2022-11-13T04:42:27.527Z,50.908085
2022-11-13T04:43:27.554Z,50.908085
2022-11-13T04:44:27.649Z,50.908173
2022-11-13T04:45:27.529Z,50.908119
2022-11-13T04:46:27.499Z,50.908154
2022-11-13T04:47:27.485Z,50.908154
2022-11-13T04:48:27.918Z,50.908119
2022-11-13T04:49:27.474Z,50.908100
2022-11-13T04:50:27.465Z,50.908123
2022-11-13T04:51:27.455Z,50.908211
2022-11-13T04:52:27.446Z,50.908127
2022-11-13T04:53:27.538Z,50.908119
2022-11-13T04:54:28.907Z,50.908058
2022-11-13T04:55:28.421Z,50.908058
2022-11-13T04:56:27.414Z,50.908096
2022-11-13T04:57:27.403Z,50.908108
2022-11-13T04:58:27.734Z,50.908104
2022-11-13T04:59:27.390Z,50.908104
2022-11-13T05:00:27.378Z,50.908161
2022-11-13T05:01:27.416Z,50.908092
2022-11-13T05:02:27.360Z,50.908180
2022-11-13T05:03:27.384Z,50.908112
2022-11-13T05:04:27.360Z,50.908073
2022-11-13T05:05:27.342Z,50.908108
2022-11-13T05:06:27.332Z,50.908108
2022-11-13T05:07:27.329Z,50.908146
2022-11-13T05:08:27.553Z,50.908115
2022-11-13T05:09:27.382Z,50.908112
2022-11-13T05:10:27.299Z,50.908108
2022-11-13T05:11:27.290Z,50.908119
2022-11-13T05:12:27.283Z,50.908054
2022-11-13T05:13:27.308Z,50.908104
2022-11-13T05:14:27.266Z,50.908119
2022-11-13T05:15:27.261Z,50.908112
2022-11-13T05:16:27.254Z,50.908127
2022-11-13T05:17:27.245Z,50.908169
2022-11-13T05:18:27.558Z,50.908073
2022-11-13T05:19:27.254Z,50.908119
2022-11-13T05:20:27.218Z,50.908115
2022-11-13T05:21:27.206Z,50.908115
2022-11-13T05:22:27.206Z,50.908123
2022-11-13T05:23:27.192Z,50.908115
2022-11-13T05:24:27.211Z,50.908108
2022-11-13T05:25:27.255Z,50.908108
2022-11-13T05:26:27.173Z,50.908104
2022-11-13T05:27:27.166Z,50.908123
2022-11-13T05:28:27.597Z,50.908115
2022-11-13T05:29:27.183Z,50.908119
2022-11-13T05:30:27.143Z,50.908119
2022-11-13T05:31:27.126Z,50.908119
2022-11-13T05:32:28.124Z,50.908142
2022-11-13T05:33:27.119Z,50.908127
2022-11-13T05:34:27.140Z,50.908100
2022-11-13T05:35:27.101Z,50.908115
2022-11-13T05:36:27.093Z,50.908142
2022-11-13T05:37:27.095Z,50.908112
2022-11-13T05:38:27.505Z,50.908115
2022-11-13T05:39:27.100Z,50.908131
2022-11-13T05:40:27.067Z,50.908047
2022-11-13T05:41:27.129Z,50.908085
2022-11-13T05:42:27.050Z,50.908104
2022-11-13T05:43:27.046Z,50.908131
2022-11-13T05:44:27.061Z,50.908073
2022-11-13T05:45:27.028Z,50.908146
2022-11-13T05:46:27.021Z,50.908157
2022-11-13T05:47:27.011Z,50.908188
2022-11-13T05:48:27.347Z,50.908169
2022-11-13T05:49:27.020Z,50.908176
2022-11-13T05:50:26.986Z,50.908134
2022-11-13T05:51:26.983Z,50.908161
2022-11-13T05:52:26.971Z,50.908199
2022-11-13T05:53:26.962Z,50.908154
2022-11-13T05:54:26.989Z,50.908146
2022-11-13T05:55:26.949Z,50.908165
2022-11-13T05:56:26.941Z,50.908165
2022-11-13T05:57:27.003Z,50.908188
2022-11-13T05:58:27.183Z,50.908157
2022-11-13T05:59:26.939Z,50.908142
2022-11-13T06:00:26.906Z,50.908154
2022-11-13T06:01:26.952Z,50.908173
2022-11-13T06:02:26.895Z,50.908127
2022-11-13T06:03:26.883Z,50.908100
2022-11-13T06:04:26.902Z,50.908100
2022-11-13T06:05:26.867Z,50.908081
2022-11-13T06:06:26.869Z,50.908066
2022-11-13T06:07:26.858Z,50.908138
2022-11-13T06:08:27.366Z,50.908131
2022-11-13T06:09:26.870Z,50.908077
2022-11-13T06:10:26.840Z,50.908066
2022-11-13T06:11:26.825Z,50.908070
2022-11-13T06:12:26.819Z,50.908062
2022-11-13T06:13:26.888Z,50.908104
2022-11-13T06:14:26.828Z,50.908077
2022-11-13T06:15:26.801Z,50.908123
2022-11-13T06:16:26.795Z,50.908100
2022-11-13T06:17:26.784Z,50.908154
2022-11-13T06:18:27.069Z,50.908150
2022-11-13T06:19:26.796Z,50.908146
2022-11-13T06:20:26.767Z,50.908020
2022-11-13T06:21:26.756Z,50.908123
2022-11-13T06:22:26.749Z,50.908127
2022-11-13T06:23:26.741Z,50.908081
2022-11-13T06:24:26.757Z,50.908161
2022-11-13T06:25:26.725Z,50.908154
2022-11-13T06:26:26.714Z,50.908100
2022-11-13T06:27:26.706Z,50.908077
2022-11-13T06:28:27.093Z,50.908092
2022-11-13T06:29:26.770Z,50.908134
2022-11-13T06:30:26.684Z,50.908157
2022-11-13T06:31:26.675Z,50.908092
2022-11-13T06:32:26.670Z,50.908119
2022-11-13T06:33:26.662Z,50.908131
2022-11-13T06:34:26.682Z,50.908150
2022-11-13T06:35:26.648Z,50.908134
2022-11-13T06:36:26.646Z,50.908138
2022-11-13T06:37:26.635Z,50.908108
2022-11-13T06:38:26.987Z,50.908092
2022-11-13T06:39:26.695Z,50.908131
2022-11-13T06:40:26.614Z,50.908062
2022-11-13T06:41:26.607Z,50.908104
2022-11-13T06:42:26.594Z,50.908142
2022-11-13T06:43:26.591Z,50.908092
2022-11-13T06:44:26.607Z,50.908134
2022-11-13T06:45:26.651Z,50.908169
2022-11-13T06:46:26.576Z,50.908154
2022-11-13T06:47:26.559Z,50.908073
2022-11-13T06:48:26.823Z,50.908108
2022-11-13T06:49:26.571Z,50.908062
2022-11-13T06:50:26.541Z,50.908047
2022-11-13T06:51:26.532Z,50.908108
2022-11-13T06:52:26.532Z,50.908115
2022-11-13T06:53:26.514Z,50.908108
2022-11-13T06:54:26.529Z,50.908123
2022-11-13T06:55:26.504Z,50.908142
2022-11-13T06:56:26.507Z,50.908134
2022-11-13T06:57:26.485Z,50.908138
2022-11-13T06:58:26.745Z,50.907967
2022-11-13T06:59:26.496Z,50.907951
2022-11-13T07:00:26.464Z,50.908031
2022-11-13T07:01:26.692Z,50.908115
2022-11-13T07:02:26.450Z,50.908154
2022-11-13T07:03:26.471Z,50.908146
2022-11-13T07:04:26.439Z,50.908131
2022-11-13T07:05:26.428Z,50.908138
2022-11-13T07:06:26.422Z,50.908165
2022-11-13T07:07:26.469Z,50.908138
2022-11-13T07:08:26.655Z,50.908092
2022-11-13T07:09:26.427Z,50.908123
2022-11-13T07:10:26.394Z,50.908134
2022-11-13T07:11:26.388Z,50.908146
2022-11-13T07:12:26.385Z,50.908119
2022-11-13T07:13:26.374Z,50.908142
2022-11-13T07:14:26.385Z,50.908180
2022-11-13T07:15:26.359Z,50.908173
2022-11-13T07:16:31.278Z,50.908138
2022-11-13T07:17:28.416Z,50.908134
2022-11-13T07:18:26.621Z,50.908173
2022-11-13T07:19:26.357Z,50.908115
2022-11-13T07:20:26.320Z,50.908123
2022-11-13T07:21:26.313Z,50.908134
2022-11-13T07:22:26.306Z,50.908161
2022-11-13T07:23:26.285Z,50.908154
2022-11-13T07:24:27.320Z,50.908192
2022-11-13T07:25:26.286Z,50.908176
2022-11-13T07:26:26.278Z,50.908180
2022-11-13T07:27:26.268Z,50.908207
2022-11-13T07:28:26.657Z,50.908184
2022-11-13T07:29:26.278Z,50.908146
2022-11-13T07:30:26.256Z,50.908134
2022-11-13T07:31:26.240Z,50.908134
2022-11-13T07:32:26.231Z,50.908176
2022-11-13T07:33:26.295Z,50.908096
2022-11-13T07:34:26.241Z,50.908089
2022-11-13T07:35:26.201Z,50.908131
2022-11-13T07:36:26.202Z,50.908112
2022-11-13T07:37:26.185Z,50.908096
2022-11-13T07:38:26.628Z,50.908123
2022-11-13T07:39:26.200Z,50.908104
2022-11-13T07:40:26.167Z,50.908119
2022-11-13T07:41:26.158Z,50.908028
2022-11-13T07:42:26.149Z,50.908119
2022-11-13T07:43:26.142Z,50.908073
2022-11-13T07:44:52.961Z,50.908134
2022-11-13T07:45:28.139Z,50.908138
2022-11-13T07:46:26.121Z,50.908131
2022-11-13T07:47:26.115Z,50.908089
2022-11-13T07:48:26.443Z,50.908138
2022-11-13T07:49:26.200Z,50.908119
2022-11-13T07:50:26.087Z,50.908100
2022-11-13T07:51:26.082Z,50.908051
2022-11-13T07:52:26.073Z,50.908089
2022-11-13T07:53:26.060Z,50.908161
2022-11-13T07:54:26.085Z,50.908131
2022-11-13T07:55:26.050Z,50.908131
2022-11-13T07:56:26.040Z,50.908081
2022-11-13T07:57:26.033Z,50.908127
2022-11-13T07:58:26.381Z,50.908146
2022-11-13T07:59:26.046Z,50.908104
2022-11-13T08:00:26.010Z,50.908199
2022-11-13T08:01:26.032Z,50.908070
2022-11-13T08:02:26.844Z,50.908119
2022-11-13T08:03:26.987Z,50.908081
2022-11-13T08:04:26.004Z,50.908009
2022-11-13T08:05:26.045Z,50.907871
2022-11-13T08:06:25.964Z,50.907990
2022-11-13T08:07:26.005Z,50.908081
2022-11-13T08:08:26.172Z,50.908138
2022-11-13T08:09:25.977Z,50.908188
2022-11-13T08:10:25.930Z,50.908077
2022-11-13T08:11:25.923Z,50.908131
2022-11-13T08:12:25.918Z,50.908131
2022-11-13T08:13:25.909Z,50.908104
2022-11-13T08:14:25.936Z,50.908146
2022-11-13T08:15:25.898Z,50.908115
2022-11-13T08:16:25.886Z,50.908138
2022-11-13T08:17:25.881Z,50.908180
2022-11-13T08:18:26.116Z,50.908184
2022-11-13T08:19:25.862Z,50.908154
2022-11-13T08:20:25.890Z,50.908134
2022-11-13T08:21:25.926Z,50.908150
2022-11-13T08:22:25.843Z,50.908134
2022-11-13T08:23:25.836Z,50.908047
2022-11-13T08:24:25.843Z,50.908054
2022-11-13T08:25:25.840Z,50.908024
2022-11-13T08:26:25.801Z,50.908134
2022-11-13T08:27:25.799Z,50.908138
2022-11-13T08:28:26.010Z,50.908176
2022-11-13T08:29:25.787Z,50.908096
2022-11-13T08:30:25.800Z,50.908138
2022-11-13T08:31:25.766Z,50.908199
2022-11-13T08:32:25.760Z,50.908783
2022-11-13T08:33:25.751Z,50.908806
2022-11-13T08:34:25.745Z,50.908485
2022-11-13T08:35:29.329Z,50.908222
2022-11-13T08:36:26.727Z,50.908119
2022-11-13T08:37:25.793Z,50.908131
2022-11-13T08:38:25.920Z,50.908035
2022-11-13T08:39:25.702Z,50.908012
2022-11-13T08:40:25.721Z,50.908009
2022-11-13T08:41:25.688Z,50.908009
2022-11-13T08:42:25.680Z,50.908237
2022-11-13T08:43:25.669Z,50.907906
2022-11-13T08:44:25.663Z,50.907795
2022-11-13T08:45:25.680Z,50.907875
2022-11-13T08:46:25.648Z,50.907848
2022-11-13T08:47:29.325Z,50.907837
2022-11-13T08:48:26.957Z,50.907673
2022-11-13T08:49:25.623Z,50.907673
2022-11-13T08:50:25.656Z,50.907673
2022-11-13T08:51:25.611Z,50.907974
2022-11-13T08:52:25.609Z,50.908001
2022-11-13T08:53:25.669Z,50.908001
2022-11-13T08:54:25.585Z,50.907936
2022-11-13T08:55:25.607Z,50.907997
2022-11-13T08:56:25.571Z,50.907997
2022-11-13T08:57:25.562Z,50.907940
2022-11-13T08:58:25.607Z,50.908020
2022-11-13T08:59:25.549Z,50.908066
2022-11-13T09:00:25.623Z,50.908096
2022-11-13T09:01:25.538Z,50.908119
2022-11-13T09:02:25.530Z,50.908161
2022-11-13T09:03:25.557Z,50.908161
2022-11-13T09:04:25.512Z,50.908096
2022-11-13T09:05:25.529Z,50.908100
2022-11-13T09:06:25.494Z,50.908047
2022-11-13T09:07:27.661Z,50.908009
2022-11-13T09:08:26.867Z,50.908028
2022-11-13T09:09:25.548Z,50.908039
2022-11-13T09:10:25.487Z,50.907879
2022-11-13T09:11:25.456Z,50.907940
2022-11-13T09:12:25.447Z,50.908012
2022-11-13T09:13:25.471Z,50.907944
2022-11-13T09:14:25.431Z,50.907955
2022-11-13T09:15:25.456Z,50.907982
2022-11-13T09:16:25.417Z,50.908062
2022-11-13T09:17:25.410Z,50.908066
2022-11-13T09:18:25.433Z,50.908058
2022-11-13T09:19:25.407Z,50.908020
2022-11-13T09:20:25.415Z,50.908016
2022-11-13T09:21:25.380Z,50.908070
2022-11-13T09:22:25.373Z,50.908012
2022-11-13T09:23:25.364Z,50.908012
2022-11-13T09:24:25.355Z,50.908020
2022-11-13T09:25:25.454Z,50.908077
2022-11-13T09:26:25.344Z,50.908104
2022-11-13T09:27:25.335Z,50.908112
2022-11-13T09:28:25.397Z,50.908115
2022-11-13T09:29:25.316Z,50.908134
2022-11-13T09:30:25.333Z,50.908123
2022-11-13T09:31:25.306Z,50.908100
2022-11-13T09:32:25.299Z,50.908096
2022-11-13T09:33:25.291Z,50.908077
2022-11-13T09:34:25.279Z,50.908146
2022-11-13T09:35:25.300Z,50.908157
2022-11-13T09:36:25.266Z,50.908119
2022-11-13T09:37:25.259Z,50.908134
2022-11-13T09:38:25.350Z,50.908176
2022-11-13T09:39:25.238Z,50.908009
2022-11-13T09:40:25.259Z,50.908070
2022-11-13T09:41:25.305Z,50.908318
2022-11-13T09:42:25.217Z,50.908268
2022-11-13T09:43:25.201Z,50.908169
2022-11-13T09:44:26.206Z,50.908085
2022-11-13T09:45:25.222Z,50.908119
2022-11-13T09:46:25.185Z,50.908157
2022-11-13T09:47:25.178Z,50.908131
2022-11-13T09:48:25.278Z,50.908173
2022-11-13T09:49:25.162Z,50.908092
2022-11-13T09:50:25.186Z,50.908127
2022-11-13T09:51:25.152Z,50.908104
2022-11-13T09:52:25.139Z,50.908096
2022-11-13T09:53:25.130Z,50.908138
2022-11-13T09:54:25.122Z,50.908131
2022-11-13T09:55:25.140Z,50.908115
2022-11-13T09:56:25.110Z,50.908127
2022-11-13T09:57:26.405Z,50.908104
2022-11-13T09:58:26.299Z,50.908131
2022-11-13T09:59:26.088Z,50.908173
2022-11-13T10:00:25.099Z,50.908176
2022-11-13T10:01:25.105Z,50.908192
2022-11-13T10:02:25.057Z,50.908146
2022-11-13T10:03:46.624Z,50.908096
2022-11-13T10:04:27.044Z,50.908081
2022-11-13T10:05:25.064Z,50.908134
2022-11-13T10:06:25.034Z,50.908127
2022-11-13T10:07:25.095Z,50.908215
2022-11-13T10:08:25.093Z,50.908134
2022-11-13T10:09:25.004Z,50.908154
2022-11-13T10:10:25.026Z,50.908138
2022-11-13T10:11:24.990Z,50.908142
2022-11-13T10:12:24.986Z,50.908123
2022-11-13T10:13:25.045Z,50.908089
2022-11-13T10:14:24.965Z,50.908203
2022-11-13T10:15:24.983Z,50.908195
2022-11-13T10:16:24.947Z,50.908142
2022-11-13T10:17:24.937Z,50.908146
2022-11-13T10:18:24.938Z,50.908112
2022-11-13T10:19:24.925Z,50.908100
2022-11-13T10:20:24.948Z,50.908112
2022-11-13T10:21:24.910Z,50.908115
2022-11-13T10:22:34.475Z,50.908131
2022-11-13T10:23:27.139Z,50.908134
2022-11-13T10:24:24.890Z,50.908104
2022-11-13T10:25:24.905Z,50.908428
2022-11-13T10:26:24.868Z,50.908207
2022-11-13T10:27:24.859Z,50.908161
2022-11-13T10:29:26.921Z,50.908131
2022-11-13T10:30:24.836Z,50.908096
2022-11-13T10:31:24.857Z,50.908092
2022-11-13T10:32:24.824Z,50.908092
2022-11-13T10:33:24.951Z,50.908043
2022-11-13T10:34:24.809Z,50.908115
2022-11-13T10:35:24.828Z,50.908092
2022-11-13T10:36:24.796Z,50.908092
2022-11-13T10:37:24.787Z,50.908081
2022-11-13T10:38:24.778Z,50.908096
2022-11-13T10:39:24.767Z,50.908123
2022-11-13T10:40:24.789Z,50.908138
2022-11-13T10:41:24.768Z,50.908047
2022-11-13T10:42:24.749Z,50.908077
2022-11-13T10:43:24.740Z,50.908134
2022-11-13T10:44:24.736Z,50.908054
2022-11-13T10:45:24.858Z,50.908112
2022-11-13T10:46:24.723Z,50.908062
2022-11-13T10:47:56.843Z,50.907967
2022-11-13T10:48:27.140Z,50.908085
2022-11-13T10:49:24.687Z,50.908100
2022-11-13T10:50:25.717Z,50.908035
2022-11-13T10:51:24.682Z,50.908062
2022-11-13T10:52:24.672Z,50.908119
2022-11-13T10:53:24.670Z,50.908066
2022-11-13T10:54:24.656Z,50.908077
2022-11-13T10:55:24.689Z,50.908207
2022-11-13T10:56:24.641Z,50.908077
2022-11-13T10:57:24.634Z,50.908104
2022-11-13T10:58:24.634Z,50.908100
2022-11-13T10:59:24.619Z,50.908051
2022-11-13T11:00:24.614Z,50.908066
2022-11-13T11:01:24.814Z,50.908077
2022-11-13T11:02:24.604Z,50.908077
2022-11-13T11:03:24.592Z,50.908062
2022-11-13T11:04:24.584Z,50.908100
2022-11-13T11:05:24.587Z,50.908096
2022-11-13T11:06:41.968Z,50.908051
2022-11-13T11:07:26.631Z,50.908058
2022-11-13T11:08:24.551Z,50.908001
2022-11-13T11:09:24.543Z,50.908039
2022-11-13T11:10:24.537Z,50.908085
2022-11-13T11:11:24.555Z,50.908066
2022-11-13T11:12:30.567Z,50.908020
2022-11-13T11:13:26.512Z,50.908100
2022-11-13T11:14:24.510Z,50.908066
2022-11-13T11:15:24.500Z,50.908119
2022-11-13T11:16:24.515Z,50.908028
2022-11-13T11:17:24.574Z,50.908081
2022-11-13T11:18:24.471Z,50.908081
2022-11-13T11:19:24.465Z,50.908031
2022-11-13T11:20:24.460Z,50.908161
2022-11-13T11:21:24.474Z,50.908058
2022-11-13T11:22:24.442Z,50.908112
2022-11-13T11:23:24.436Z,50.908085
2022-11-13T11:24:24.427Z,50.908058
2022-11-13T11:25:24.420Z,50.908142